sensor_id;sensor_type;location;lat;lon;timestamp;pressure;altitude;pressure_sealevel;temperature;humidity
59168;BME280;44948;55.046;73.266;2023-03-22T00:01:12;100719.22;;;-4.91;66.71
59168;BME280;44948;55.046;73.266;2023-03-22T00:04:15;100721.78;;;-4.88;66.80
59168;BME280;44948;55.046;73.266;2023-03-22T00:07:17;100714.97;;;-4.92;66.75
59168;BME280;44948;55.046;73.266;2023-03-22T00:10:26;100719.25;;;-4.82;66.48
59168;BME280;44948;55.046;73.266;2023-03-22T00:13:33;100724.38;;;-5.02;66.77
59168;BME280;44948;55.046;73.266;2023-03-22T00:16:35;100715.81;;;-4.91;67.01
59168;BME280;44948;55.046;73.266;2023-03-22T00:19:38;100714.97;;;-4.80;66.43
59168;BME280;44948;55.046;73.266;2023-03-22T00:22:48;100704.75;;;-4.83;66.45
59168;BME280;44948;55.046;73.266;2023-03-22T00:25:52;100712.41;;;-4.75;66.49
59168;BME280;44948;55.046;73.266;2023-03-22T00:29:04;100713.25;;;-4.78;66.27
59168;BME280;44948;55.046;73.266;2023-03-22T00:32:12;100703.00;;;-4.75;66.29
59168;BME280;44948;55.046;73.266;2023-03-22T00:35:24;100705.56;;;-4.66;66.18
59168;BME280;44948;55.046;73.266;2023-03-22T00:38:27;100720.91;;;-4.61;65.96
59168;BME280;44948;55.046;73.266;2023-03-22T00:41:35;100709.81;;;-4.61;66.29
59168;BME280;44948;55.046;73.266;2023-03-22T00:44:37;100709.81;;;-4.58;65.77
59168;BME280;44948;55.046;73.266;2023-03-22T00:47:50;100706.41;;;-4.60;65.74
59168;BME280;44948;55.046;73.266;2023-03-22T00:50:54;100694.44;;;-4.58;65.47
59168;BME280;44948;55.046;73.266;2023-03-22T00:54:06;100708.09;;;-4.59;65.80
59168;BME280;44948;55.046;73.266;2023-03-22T00:57:08;100692.75;;;-4.63;65.66
59168;BME280;44948;55.046;73.266;2023-03-22T01:00:11;100704.69;;;-4.55;65.56
59168;BME280;44948;55.046;73.266;2023-03-22T01:03:24;100691.88;;;-4.54;65.58
59168;BME280;44948;55.046;73.266;2023-03-22T01:06:37;100694.47;;;-4.52;65.50
59168;BME280;44948;55.046;73.266;2023-03-22T01:09:51;100691.88;;;-4.49;65.32
59168;BME280;44948;55.046;73.266;2023-03-22T01:12:54;100701.25;;;-4.48;65.28
59168;BME280;44948;55.046;73.266;2023-03-22T01:16:03;100701.25;;;-4.45;65.18
59168;BME280;44948;55.046;73.266;2023-03-22T01:19:06;100685.06;;;-4.56;65.27
59168;BME280;44948;55.046;73.266;2023-03-22T01:22:09;100693.53;;;-4.39;64.98
59168;BME280;44948;55.046;73.266;2023-03-22T01:25:13;100694.41;;;-4.43;64.85
59168;BME280;44948;55.046;73.266;2023-03-22T01:28:15;100703.78;;;-4.30;64.89
59168;BME280;44948;55.046;73.266;2023-03-22T01:31:17;100708.03;;;-4.32;64.47
59168;BME280;44948;55.046;73.266;2023-03-22T01:34:20;100686.69;;;-4.28;64.58
59168;BME280;44948;55.046;73.266;2023-03-22T01:37:28;100689.25;;;-4.26;64.52
59168;BME280;44948;55.046;73.266;2023-03-22T01:40:32;100669.59;;;-4.27;64.46
59168;BME280;44948;55.046;73.266;2023-03-22T01:43:36;100672.13;;;-4.21;64.58
59168;BME280;44948;55.046;73.266;2023-03-22T01:46:39;100679.81;;;-4.14;64.32
59168;BME280;44948;55.046;73.266;2023-03-22T01:49:42;100672.97;;;-4.13;64.45
59168;BME280;44948;55.046;73.266;2023-03-22T01:52:47;100682.34;;;-4.12;64.01
59168;BME280;44948;55.046;73.266;2023-03-22T01:55:56;100692.56;;;-4.01;64.06
59168;BME280;44948;55.046;73.266;2023-03-22T01:59:06;100690.84;;;-3.99;63.93
59168;BME280;44948;55.046;73.266;2023-03-22T02:02:28;100682.31;;;-4.01;63.96
59168;BME280;44948;55.046;73.266;2023-03-22T02:05:42;100689.09;;;-3.94;63.58
59168;BME280;44948;55.046;73.266;2023-03-22T02:08:45;100691.66;;;-3.94;63.86
59168;BME280;44948;55.046;73.266;2023-03-22T02:12:24;100689.97;;;-3.95;63.68
59168;BME280;44948;55.046;73.266;2023-03-22T02:26:40;100679.56;;;-3.66;62.64
59168;BME280;44948;55.046;73.266;2023-03-22T02:29:59;100686.31;;;-3.52;62.69
59168;BME280;44948;55.046;73.266;2023-03-22T02:40:43;100691.31;;;-3.36;62.23
59168;BME280;44948;55.046;73.266;2023-03-22T02:46:59;100693.69;;;-3.12;62.15
59168;BME280;44948;55.046;73.266;2023-03-22T02:50:28;100698.00;;;-3.19;61.56
59168;BME280;44948;55.046;73.266;2023-03-22T02:54:00;100695.41;;;-3.11;61.23
59168;BME280;44948;55.046;73.266;2023-03-22T02:57:32;100702.97;;;-2.97;61.17
59168;BME280;44948;55.046;73.266;2023-03-22T03:00:43;100702.91;;;-2.90;60.86
59168;BME280;44948;55.046;73.266;2023-03-22T03:03:49;100696.00;;;-2.83;61.12
59168;BME280;44948;55.046;73.266;2023-03-22T03:07:07;100693.41;;;-2.78;60.69
59168;BME280;44948;55.046;73.266;2023-03-22T03:10:17;100698.41;;;-2.66;61.01
59168;BME280;44948;55.046;73.266;2023-03-22T03:13:20;100711.09;;;-2.53;60.75
59168;BME280;44948;55.046;73.266;2023-03-22T03:16:26;100696.56;;;-2.55;60.58
59168;BME280;44948;55.046;73.266;2023-03-22T03:19:40;100700.81;;;-2.49;60.32
59168;BME280;44948;55.046;73.266;2023-03-22T03:26:33;100696.53;;;-2.52;60.40
59168;BME280;44948;55.046;73.266;2023-03-22T03:30:00;100706.75;;;-2.46;60.60
59168;BME280;44948;55.046;73.266;2023-03-22T03:33:09;100709.19;;;-2.35;60.26
59168;BME280;44948;55.046;73.266;2023-03-22T03:36:15;100717.59;;;-2.19;60.32
59168;BME280;44948;55.046;73.266;2023-03-22T03:39:19;100716.66;;;-2.12;60.38
59168;BME280;44948;55.046;73.266;2023-03-22T03:42:26;100700.31;;;-2.07;60.16
59168;BME280;44948;55.046;73.266;2023-03-22T03:45:30;100712.06;;;-1.87;59.97
59168;BME280;44948;55.046;73.266;2023-03-22T03:48:46;100716.09;;;-1.70;59.86
59168;BME280;44948;55.046;73.266;2023-03-22T03:51:52;100715.91;;;-1.54;59.37
59168;BME280;44948;55.046;73.266;2023-03-22T03:54:55;100725.66;;;-1.78;59.32
59168;BME280;44948;55.046;73.266;2023-03-22T03:58:03;100735.06;;;-1.77;59.69
59168;BME280;44948;55.046;73.266;2023-03-22T04:01:06;100711.66;;;-1.57;59.18
59168;BME280;44948;55.046;73.266;2023-03-22T04:04:31;100724.13;;;-1.29;59.13
59168;BME280;44948;55.046;73.266;2023-03-22T04:07:41;100720.41;;;-1.12;58.63
59168;BME280;44948;55.046;73.266;2023-03-22T04:10:49;100714.59;;;-0.72;58.14
59168;BME280;44948;55.046;73.266;2023-03-22T04:13:53;100712.19;;;-0.35;57.49
59168;BME280;44948;55.046;73.266;2023-03-22T04:17:08;100716.25;;;-0.22;56.89
59168;BME280;44948;55.046;73.266;2023-03-22T04:20:11;100708.38;;;-0.14;56.55
59168;BME280;44948;55.046;73.266;2023-03-22T04:23:20;100718.50;;;-0.05;56.48
59168;BME280;44948;55.046;73.266;2023-03-22T04:26:23;100676.66;;;-0.19;56.57
59168;BME280;44948;55.046;73.266;2023-03-22T04:29:52;100709.78;;;0.01;56.70
59168;BME280;44948;55.046;73.266;2023-03-22T04:33:13;100702.63;;;0.13;56.38
59168;BME280;44948;55.046;73.266;2023-03-22T04:36:38;100691.25;;;0.24;56.38
59168;BME280;44948;55.046;73.266;2023-03-22T04:40:02;100688.31;;;0.40;55.95
59168;BME280;44948;55.046;73.266;2023-03-22T04:43:20;100696.88;;;0.41;55.57
59168;BME280;44948;55.046;73.266;2023-03-22T04:46:35;100689.97;;;0.43;55.97
59168;BME280;44948;55.046;73.266;2023-03-22T04:49:50;100684.31;;;0.26;55.52
59168;BME280;44948;55.046;73.266;2023-03-22T04:52:53;100680.69;;;0.34;55.28
59168;BME280;44948;55.046;73.266;2023-03-22T04:56:07;100675.91;;;0.56;55.59
59168;BME280;44948;55.046;73.266;2023-03-22T04:59:11;100674.81;;;0.65;54.91
59168;BME280;44948;55.046;73.266;2023-03-22T05:02:13;100677.25;;;0.72;54.96
59168;BME280;44948;55.046;73.266;2023-03-22T05:05:18;100681.34;;;0.79;54.98
59168;BME280;44948;55.046;73.266;2023-03-22T05:08:33;100656.66;;;0.68;55.03
59168;BME280;44948;55.046;73.266;2023-03-22T05:11:37;100665.19;;;0.73;55.00
59168;BME280;44948;55.046;73.266;2023-03-22T05:15:04;100660.63;;;0.47;55.26
59168;BME280;44948;55.046;73.266;2023-03-22T05:18:11;100673.59;;;0.79;55.17
59168;BME280;44948;55.046;73.266;2023-03-22T05:21:16;100666.66;;;0.81;54.91
59168;BME280;44948;55.046;73.266;2023-03-22T05:24:39;100666.53;;;0.88;55.11
59168;BME280;44948;55.046;73.266;2023-03-22T05:27:46;100681.03;;;0.93;55.13
59168;BME280;44948;55.046;73.266;2023-03-22T05:31:20;100664.47;;;1.02;55.43
59168;BME280;44948;55.046;73.266;2023-03-22T05:34:35;100669.28;;;0.80;55.58
59168;BME280;44948;55.046;73.266;2023-03-22T05:37:49;100670.91;;;0.86;55.99
59168;BME280;44948;55.046;73.266;2023-03-22T05:40:54;100654.72;;;0.77;55.96
59168;BME280;44948;55.046;73.266;2023-03-22T05:43:57;100658.13;;;0.79;56.38
59168;BME280;44948;55.046;73.266;2023-03-22T05:47:00;100668.69;;;1.04;56.26
59168;BME280;44948;55.046;73.266;2023-03-22T05:50:10;100658.25;;;1.09;55.76
59168;BME280;44948;55.046;73.266;2023-03-22T05:53:13;100662.22;;;1.22;55.95
59168;BME280;44948;55.046;73.266;2023-03-22T05:56:45;100660.31;;;1.29;55.69
59168;BME280;44948;55.046;73.266;2023-03-22T05:59:58;100654.78;;;1.42;55.05
59168;BME280;44948;55.046;73.266;2023-03-22T06:03:14;100644.91;;;1.57;54.83
59168;BME280;44948;55.046;73.266;2023-03-22T06:06:23;100648.00;;;1.69;53.35
59168;BME280;44948;55.046;73.266;2023-03-22T06:10:06;100642.41;;;1.83;53.13
59168;BME280;44948;55.046;73.266;2023-03-22T06:13:09;100639.44;;;1.97;52.07
59168;BME280;44948;55.046;73.266;2023-03-22T06:16:12;100646.03;;;2.07;51.45
59168;BME280;44948;55.046;73.266;2023-03-22T06:19:16;100654.44;;;2.14;50.81
59168;BME280;44948;55.046;73.266;2023-03-22T06:22:29;100651.34;;;2.30;51.02
59168;BME280;44948;55.046;73.266;2023-03-22T06:25:39;100651.19;;;2.35;50.08
59168;BME280;44948;55.046;73.266;2023-03-22T06:28:41;100652.72;;;2.42;49.65
59168;BME280;44948;55.046;73.266;2023-03-22T06:31:55;100643.38;;;2.65;49.53
59168;BME280;44948;55.046;73.266;2023-03-22T06:35:10;100634.88;;;2.61;48.88
59168;BME280;44948;55.046;73.266;2023-03-22T06:38:14;100631.63;;;2.81;48.78
59168;BME280;44948;55.046;73.266;2023-03-22T06:41:18;100631.31;;;2.90;48.32
59168;BME280;44948;55.046;73.266;2023-03-22T06:44:20;100628.88;;;2.85;48.50
59168;BME280;44948;55.046;73.266;2023-03-22T06:47:26;100626.16;;;2.90;48.58
59168;BME280;44948;55.046;73.266;2023-03-22T06:50:52;100639.16;;;2.88;48.76
59168;BME280;44948;55.046;73.266;2023-03-22T06:54:03;100628.03;;;2.85;48.80
59168;BME280;44948;55.046;73.266;2023-03-22T06:57:06;100612.63;;;2.80;49.51
59168;BME280;44948;55.046;73.266;2023-03-22T07:00:09;100640.88;;;2.61;48.86
59168;BME280;44948;55.046;73.266;2023-03-22T07:03:12;100634.81;;;2.62;49.66
59168;BME280;44948;55.046;73.266;2023-03-22T07:06:21;100637.19;;;2.69;49.77
59168;BME280;44948;55.046;73.266;2023-03-22T07:09:25;100626.59;;;2.50;50.58
59168;BME280;44948;55.046;73.266;2023-03-22T07:12:30;100635.13;;;2.53;50.57
59168;BME280;44948;55.046;73.266;2023-03-22T07:15:37;100630.03;;;2.77;50.42
59168;BME280;44948;55.046;73.266;2023-03-22T07:18:54;100622.31;;;3.00;49.12
59168;BME280;44948;55.046;73.266;2023-03-22T07:21:59;100625.19;;;3.17;48.75
59168;BME280;44948;55.046;73.266;2023-03-22T07:25:02;100618.09;;;3.47;48.05
59168;BME280;44948;55.046;73.266;2023-03-22T07:28:06;100611.97;;;3.00;46.22
59168;BME280;44948;55.046;73.266;2023-03-22T07:31:13;100611.59;;;3.11;46.94
59168;BME280;44948;55.046;73.266;2023-03-22T07:34:25;100622.53;;;3.19;47.06
59168;BME280;44948;55.046;73.266;2023-03-22T07:37:51;100589.13;;;2.86;46.48
59168;BME280;44948;55.046;73.266;2023-03-22T07:40:59;100587.75;;;2.76;46.77
59168;BME280;44948;55.046;73.266;2023-03-22T07:44:15;100613.25;;;2.88;46.52
59168;BME280;44948;55.046;73.266;2023-03-22T07:47:28;100614.03;;;2.90;47.25
59168;BME280;44948;55.046;73.266;2023-03-22T07:50:54;100603.72;;;2.89;46.93
59168;BME280;44948;55.046;73.266;2023-03-22T07:54:00;100593.94;;;2.97;46.97
59168;BME280;44948;55.046;73.266;2023-03-22T07:57:02;100584.59;;;2.93;46.34
59168;BME280;44948;55.046;73.266;2023-03-22T08:00:09;100589.03;;;2.89;46.01
59168;BME280;44948;55.046;73.266;2023-03-22T08:03:37;100581.66;;;3.02;46.22
59168;BME280;44948;55.046;73.266;2023-03-22T08:06:50;100573.63;;;3.10;45.66
59168;BME280;44948;55.046;73.266;2023-03-22T08:10:04;100579.91;;;3.28;45.85
59168;BME280;44948;55.046;73.266;2023-03-22T08:13:08;100593.44;;;3.36;45.96
59168;BME280;44948;55.046;73.266;2023-03-22T08:16:11;100585.50;;;3.40;45.40
59168;BME280;44948;55.046;73.266;2023-03-22T08:19:23;100592.09;;;3.26;45.32
59168;BME280;44948;55.046;73.266;2023-03-22T08:22:27;100582.97;;;3.14;45.24
59168;BME280;44948;55.046;73.266;2023-03-22T08:25:50;100568.94;;;2.96;46.06
59168;BME280;44948;55.046;73.266;2023-03-22T08:29:02;100576.19;;;2.86;44.67
59168;BME280;44948;55.046;73.266;2023-03-22T08:32:09;100567.53;;;2.86;44.99
59168;BME280;44948;55.046;73.266;2023-03-22T08:35:11;100571.25;;;2.79;45.62
59168;BME280;44948;55.046;73.266;2023-03-22T08:38:14;100559.59;;;2.66;45.50
59168;BME280;44948;55.046;73.266;2023-03-22T08:41:22;100569.56;;;2.78;45.70
59168;BME280;44948;55.046;73.266;2023-03-22T08:44:24;100569.66;;;2.75;45.54
59168;BME280;44948;55.046;73.266;2023-03-22T08:47:27;100573.94;;;2.76;45.46
59168;BME280;44948;55.046;73.266;2023-03-22T08:50:34;100559.50;;;2.69;45.71
59168;BME280;44948;55.046;73.266;2023-03-22T08:53:47;100559.94;;;2.56;45.55
59168;BME280;44948;55.046;73.266;2023-03-22T08:57:16;100572.25;;;2.48;45.60
59168;BME280;44948;55.046;73.266;2023-03-22T09:00:43;100569.16;;;2.11;46.21
59168;BME280;44948;55.046;73.266;2023-03-22T09:03:50;100550.47;;;2.29;45.93
59168;BME280;44948;55.046;73.266;2023-03-22T09:06:53;100570.41;;;2.53;45.98
59168;BME280;44948;55.046;73.266;2023-03-22T09:09:56;100562.53;;;2.56;44.84
59168;BME280;44948;55.046;73.266;2023-03-22T09:13:10;100567.28;;;2.42;45.31
59168;BME280;44948;55.046;73.266;2023-03-22T09:16:20;100556.16;;;2.40;44.89
59168;BME280;44948;55.046;73.266;2023-03-22T09:19:28;100564.88;;;2.38;45.24
59168;BME280;44948;55.046;73.266;2023-03-22T09:22:30;100571.16;;;2.29;45.97
59168;BME280;44948;55.046;73.266;2023-03-22T09:25:44;100569.19;;;2.37;44.60
59168;BME280;44948;55.046;73.266;2023-03-22T09:28:47;100572.00;;;2.29;44.11
59168;BME280;44948;55.046;73.266;2023-03-22T09:31:49;100557.44;;;2.27;44.50
59168;BME280;44948;55.046;73.266;2023-03-22T09:34:56;100537.69;;;2.24;44.59
59168;BME280;44948;55.046;73.266;2023-03-22T09:38:02;100558.84;;;2.37;45.22
59168;BME280;44948;55.046;73.266;2023-03-22T09:41:21;100536.44;;;2.36;45.16
59168;BME280;44948;55.046;73.266;2023-03-22T09:44:41;100549.69;;;2.53;46.17
59168;BME280;44948;55.046;73.266;2023-03-22T09:47:53;100549.69;;;2.53;45.94
59168;BME280;44948;55.046;73.266;2023-03-22T09:50:59;100542.59;;;2.58;45.72
59168;BME280;44948;55.046;73.266;2023-03-22T09:54:02;100541.47;;;2.66;44.83
59168;BME280;44948;55.046;73.266;2023-03-22T10:00:30;100551.53;;;2.75;44.11
59168;BME280;44948;55.046;73.266;2023-03-22T10:07:03;100541.34;;;2.70;44.67
59168;BME280;44948;55.046;73.266;2023-03-22T10:10:22;100531.84;;;2.71;45.30
59168;BME280;44948;55.046;73.266;2023-03-22T10:13:29;100538.25;;;2.84;45.22
59168;BME280;44948;55.046;73.266;2023-03-22T10:16:43;100530.13;;;2.95;45.32
59168;BME280;44948;55.046;73.266;2023-03-22T10:20:26;100535.13;;;2.99;44.49
59168;BME280;44948;55.046;73.266;2023-03-22T10:26:46;100515.84;;;2.83;44.67
59168;BME280;44948;55.046;73.266;2023-03-22T10:30:07;100518.53;;;2.80;44.47
59168;BME280;44948;55.046;73.266;2023-03-22T10:33:41;100518.78;;;2.74;45.17
59168;BME280;44948;55.046;73.266;2023-03-22T10:36:51;100511.91;;;2.73;45.63
59168;BME280;44948;55.046;73.266;2023-03-22T10:40:05;100518.66;;;2.77;46.05
59168;BME280;44948;55.046;73.266;2023-03-22T10:43:16;100511.84;;;2.74;46.32
59168;BME280;44948;55.046;73.266;2023-03-22T10:46:24;100512.25;;;2.62;46.96
59168;BME280;44948;55.046;73.266;2023-03-22T10:49:38;100511.09;;;2.46;46.74
59168;BME280;44948;55.046;73.266;2023-03-22T10:56:00;100507.81;;;2.41;48.10
59168;BME280;44948;55.046;73.266;2023-03-22T10:59:04;100509.28;;;2.48;48.16
59168;BME280;44948;55.046;73.266;2023-03-22T11:02:21;100517.78;;;2.51;48.26
59168;BME280;44948;55.046;73.266;2023-03-22T11:05:26;100516.81;;;2.55;48.67
59168;BME280;44948;55.046;73.266;2023-03-22T11:08:37;100507.81;;;2.66;48.21
59168;BME280;44948;55.046;73.266;2023-03-22T11:15:05;100517.22;;;2.68;48.48
59168;BME280;44948;55.046;73.266;2023-03-22T11:18:18;100522.16;;;2.76;48.51
59168;BME280;44948;55.046;73.266;2023-03-22T11:21:25;100510.88;;;2.77;48.89
59168;BME280;44948;55.046;73.266;2023-03-22T11:24:39;100516.31;;;2.69;49.05
59168;BME280;44948;55.046;73.266;2023-03-22T11:31:19;100502.13;;;2.56;48.91
59168;BME280;44948;55.046;73.266;2023-03-22T11:34:27;100506.22;;;2.61;49.22
59168;BME280;44948;55.046;73.266;2023-03-22T11:37:30;100504.75;;;2.54;50.00
59168;BME280;44948;55.046;73.266;2023-03-22T11:40:51;100504.16;;;2.46;49.77
59168;BME280;44948;55.046;73.266;2023-03-22T11:44:12;100497.00;;;2.54;49.46
59168;BME280;44948;55.046;73.266;2023-03-22T11:47:18;100493.88;;;2.70;49.55
59168;BME280;44948;55.046;73.266;2023-03-22T11:50:33;100480.06;;;2.69;49.89
59168;BME280;44948;55.046;73.266;2023-03-22T11:53:47;100488.97;;;2.85;49.59
59168;BME280;44948;55.046;73.266;2023-03-22T11:56:50;100456.22;;;2.84;48.80
59168;BME280;44948;55.046;73.266;2023-03-22T12:03:15;100491.19;;;2.96;49.64
59168;BME280;44948;55.046;73.266;2023-03-22T12:06:22;100489.38;;;2.75;49.62
59168;BME280;44948;55.046;73.266;2023-03-22T12:12:50;100482.78;;;2.41;50.63
59168;BME280;44948;55.046;73.266;2023-03-22T12:15:57;100479.78;;;2.27;51.16
59168;BME280;44948;55.046;73.266;2023-03-22T12:22:53;100470.09;;;1.81;51.82
59168;BME280;44948;55.046;73.266;2023-03-22T12:29:17;100474.63;;;1.74;53.22
59168;BME280;44948;55.046;73.266;2023-03-22T12:32:35;100464.28;;;1.74;53.25
59168;BME280;44948;55.046;73.266;2023-03-22T12:35:42;100458.78;;;1.83;53.89
59168;BME280;44948;55.046;73.266;2023-03-22T12:38:49;100469.22;;;1.54;54.13
59168;BME280;44948;55.046;73.266;2023-03-22T12:42:56;100464.84;;;1.56;55.20
59168;BME280;44948;55.046;73.266;2023-03-22T12:45:42;100467.53;;;1.51;55.68
59168;BME280;44948;55.046;73.266;2023-03-22T12:52:50;100462.09;;;1.32;56.64
59168;BME280;44948;55.046;73.266;2023-03-22T12:55:57;100464.22;;;1.18;58.16
59168;BME280;44948;55.046;73.266;2023-03-22T12:59:03;100458.50;;;1.08;58.45
59168;BME280;44948;55.046;73.266;2023-03-22T13:02:17;100463.25;;;0.93;58.99
59168;BME280;44948;55.046;73.266;2023-03-22T13:05:26;100466.38;;;0.73;60.09
59168;BME280;44948;55.046;73.266;2023-03-22T13:09:08;100463.56;;;0.49;60.75
59168;BME280;44948;55.046;73.266;2023-03-22T13:15:33;100463.34;;;0.25;61.93
59168;BME280;44948;55.046;73.266;2023-03-22T13:21:48;100461.97;;;0.11;62.70
59168;BME280;44948;55.046;73.266;2023-03-22T13:28:24;100447.06;;;-0.12;63.38
59168;BME280;44948;55.046;73.266;2023-03-22T13:31:37;100454.84;;;-0.13;63.26
59168;BME280;44948;55.046;73.266;2023-03-22T13:34:48;100455.91;;;-0.22;64.02
59168;BME280;44948;55.046;73.266;2023-03-22T13:38:00;100464.63;;;-0.27;64.26
59168;BME280;44948;55.046;73.266;2023-03-22T13:41:31;100452.25;;;-0.49;64.85
59168;BME280;44948;55.046;73.266;2023-03-22T13:44:40;100460.78;;;-0.47;65.24
59168;BME280;44948;55.046;73.266;2023-03-22T13:48:12;100450.81;;;-0.62;65.70
59168;BME280;44948;55.046;73.266;2023-03-22T13:51:30;100451.66;;;-0.61;65.56
59168;BME280;44948;55.046;73.266;2023-03-22T13:54:47;100445.72;;;-0.65;65.80
59168;BME280;44948;55.046;73.266;2023-03-22T13:57:59;100449.31;;;-0.72;66.49
59168;BME280;44948;55.046;73.266;2023-03-22T14:01:05;100451.97;;;-0.75;66.69
59168;BME280;44948;55.046;73.266;2023-03-22T14:04:12;100447.13;;;-0.90;67.38
59168;BME280;44948;55.046;73.266;2023-03-22T14:07:28;100452.34;;;-0.93;67.46
59168;BME280;44948;55.046;73.266;2023-03-22T14:10:51;100451.56;;;-0.97;67.18
59168;BME280;44948;55.046;73.266;2023-03-22T14:14:01;100447.38;;;-1.03;67.59
59168;BME280;44948;55.046;73.266;2023-03-22T14:17:28;100452.75;;;-1.13;67.85
59168;BME280;44948;55.046;73.266;2023-03-22T14:20:43;100450.31;;;-1.21;68.64
59168;BME280;44948;55.046;73.266;2023-03-22T14:23:54;100446.03;;;-1.20;68.86
59168;BME280;44948;55.046;73.266;2023-03-22T14:26:58;100457.19;;;-1.21;68.76
59168;BME280;44948;55.046;73.266;2023-03-22T14:30:02;100461.47;;;-1.20;68.22
59168;BME280;44948;55.046;73.266;2023-03-22T14:33:10;100453.78;;;-1.22;68.44
59168;BME280;44948;55.046;73.266;2023-03-22T14:36:14;100453.88;;;-1.26;68.70
59168;BME280;44948;55.046;73.266;2023-03-22T14:39:28;100453.16;;;-1.33;68.81
59168;BME280;44948;55.046;73.266;2023-03-22T14:42:32;100450.69;;;-1.39;69.14
59168;BME280;44948;55.046;73.266;2023-03-22T14:45:41;100446.50;;;-1.45;69.38
59168;BME280;44948;55.046;73.266;2023-03-22T14:48:54;100435.47;;;-1.50;68.99
59168;BME280;44948;55.046;73.266;2023-03-22T14:51:57;100448.28;;;-1.48;69.60
59168;BME280;44948;55.046;73.266;2023-03-22T14:55:03;100441.41;;;-1.46;69.33
59168;BME280;44948;55.046;73.266;2023-03-22T14:58:19;100438.09;;;-1.54;70.03
59168;BME280;44948;55.046;73.266;2023-03-22T15:01:35;100436.41;;;-1.55;69.52
59168;BME280;44948;55.046;73.266;2023-03-22T15:04:39;100439.03;;;-1.58;69.76
59168;BME280;44948;55.046;73.266;2023-03-22T15:07:44;100433.09;;;-1.61;69.65
59168;BME280;44948;55.046;73.266;2023-03-22T15:10:50;100429.63;;;-1.59;70.00
59168;BME280;44948;55.046;73.266;2023-03-22T15:13:55;100423.59;;;-1.58;70.00
59168;BME280;44948;55.046;73.266;2023-03-22T15:16:58;100421.03;;;-1.58;69.77
59168;BME280;44948;55.046;73.266;2023-03-22T15:20:03;100414.97;;;-1.56;69.71
59168;BME280;44948;55.046;73.266;2023-03-22T15:23:14;100412.44;;;-1.57;69.60
59168;BME280;44948;55.046;73.266;2023-03-22T15:26:36;100402.34;;;-1.68;69.47
59168;BME280;44948;55.046;73.266;2023-03-22T15:29:47;100406.50;;;-1.61;69.98
59168;BME280;44948;55.046;73.266;2023-03-22T15:32:50;100405.59;;;-1.58;69.98
59168;BME280;44948;55.046;73.266;2023-03-22T15:35:56;100394.44;;;-1.57;70.00
59168;BME280;44948;55.046;73.266;2023-03-22T15:39:02;100393.56;;;-1.56;69.73
59168;BME280;44948;55.046;73.266;2023-03-22T15:42:17;100400.41;;;-1.55;69.66
59168;BME280;44948;55.046;73.266;2023-03-22T15:45:24;100395.88;;;-1.89;70.05
59168;BME280;44948;55.046;73.266;2023-03-22T15:48:26;100399.09;;;-1.76;70.04
59168;BME280;44948;55.046;73.266;2023-03-22T15:51:35;100391.31;;;-1.73;69.99
59168;BME280;44948;55.046;73.266;2023-03-22T15:55:33;100394.78;;;-1.76;69.48
59168;BME280;44948;55.046;73.266;2023-03-22T15:58:29;100396.16;;;-2.04;70.36
59168;BME280;44948;55.046;73.266;2023-03-22T16:01:42;100388.97;;;-1.87;69.91
59168;BME280;44948;55.046;73.266;2023-03-22T16:04:44;100386.31;;;-1.81;69.92
59168;BME280;44948;55.046;73.266;2023-03-22T16:07:50;100383.69;;;-1.78;70.11
59168;BME280;44948;55.046;73.266;2023-03-22T16:11:05;100381.94;;;-1.76;70.13
59168;BME280;44948;55.046;73.266;2023-03-22T16:14:12;100385.44;;;-1.80;69.88
59168;BME280;44948;55.046;73.266;2023-03-22T16:17:18;100386.13;;;-1.72;69.84
59168;BME280;44948;55.046;73.266;2023-03-22T16:20:21;100378.41;;;-1.72;69.74
59168;BME280;44948;55.046;73.266;2023-03-22T16:23:33;100358.06;;;-1.82;70.01
59168;BME280;44948;55.046;73.266;2023-03-22T16:26:45;100380.94;;;-1.67;70.12
59168;BME280;44948;55.046;73.266;2023-03-22T16:29:48;100368.06;;;-1.69;70.44
59168;BME280;44948;55.046;73.266;2023-03-22T16:32:50;100384.31;;;-1.65;70.20
59168;BME280;44948;55.046;73.266;2023-03-22T16:35:53;100378.31;;;-1.66;69.94
59168;BME280;44948;55.046;73.266;2023-03-22T16:38:55;100369.72;;;-1.65;70.28
59168;BME280;44948;55.046;73.266;2023-03-22T16:41:57;100385.13;;;-1.63;70.09
59168;BME280;44948;55.046;73.266;2023-03-22T16:45:02;100373.22;;;-1.69;70.46
59168;BME280;44948;55.046;73.266;2023-03-22T16:48:09;100363.69;;;-1.62;70.13
59168;BME280;44948;55.046;73.266;2023-03-22T16:51:26;100363.00;;;-1.72;70.16
59168;BME280;44948;55.046;73.266;2023-03-22T16:54:41;100352.63;;;-1.69;70.14
59168;BME280;44948;55.046;73.266;2023-03-22T16:57:49;100348.41;;;-1.71;70.23
59168;BME280;44948;55.046;73.266;2023-03-22T17:00:51;100356.06;;;-1.67;69.96
59168;BME280;44948;55.046;73.266;2023-03-22T17:03:54;100351.81;;;-1.71;70.17
59168;BME280;44948;55.046;73.266;2023-03-22T17:07:01;100336.56;;;-1.78;70.36
59168;BME280;44948;55.046;73.266;2023-03-22T17:10:04;100344.19;;;-1.74;70.19
59168;BME280;44948;55.046;73.266;2023-03-22T17:13:09;100336.50;;;-1.75;70.40
59168;BME280;44948;55.046;73.266;2023-03-22T17:16:23;100327.91;;;-1.74;70.31
59168;BME280;44948;55.046;73.266;2023-03-22T17:19:26;100327.13;;;-1.78;70.42
59168;BME280;44948;55.046;73.266;2023-03-22T17:22:29;100322.16;;;-1.87;70.62
59168;BME280;44948;55.046;73.266;2023-03-22T17:25:43;100322.28;;;-1.93;70.31
59168;BME280;44948;55.046;73.266;2023-03-22T17:28:53;100327.34;;;-1.90;70.54
59168;BME280;44948;55.046;73.266;2023-03-22T17:32:12;100318.09;;;-1.99;70.65
59168;BME280;44948;55.046;73.266;2023-03-22T17:35:27;100328.31;;;-1.96;70.61
59168;BME280;44948;55.046;73.266;2023-03-22T17:38:38;100315.44;;;-1.94;70.40
59168;BME280;44948;55.046;73.266;2023-03-22T17:41:41;100310.44;;;-2.02;70.48